Flight Track Log - Related Links

Times and Time Zones

All times are in EDT time to prevent confusion due to time zone crossing. See the AWI3688 flight status page for this flight to view local times or setup timezone preferences in your user account.

Time Position Orientation Groundspeed Altitude Reporting Facility
EDT Latitude Longitude Course Direction KTS MPH feet Rate Location/Type
Fri 02:04:14 PM 42.7236 -73.8081 219° Southwest 155 178 1,200  Level Boston Center
Fri 02:05:32 PM 42.6792 -73.8633 222° Southwest 232 267 4,100 2,261 Climbing Boston Center
Fri 02:06:00 PM 42.6825 -74.3718 220° Southwest  Level FlightAware Approximate
Fri 02:06:32 PM 42.6906 -73.9542 280° West 252 290 6,400  Level Boston Center
Fri 02:07:00 PM 42.5699 -74.5002 223° Southwest  Level FlightAware Approximate
Fri 02:07:32 PM 42.7078 -74.0592 283° West 271 312 9,100  Level Boston Center
Fri 02:08:00 PM 42.4589 -74.6310 219° Southwest  Level FlightAware Approximate
Fri 02:08:32 PM 42.7228 -74.1669 281° West 289 333 11,500  Level Boston Center
Fri 02:09:00 PM 42.3856 -74.7124 219° Southwest  Level FlightAware Approximate
Fri 02:09:32 PM 42.7378 -74.2719 281° West 303 349 13,600  Level Boston Center
Fri 02:10:32 PM 42.6861 -74.3778 236° Southwest 298 343 15,600 1,800 Climbing Boston Center
Fri 02:11:32 PM 42.6203 -74.4519 220° Southwest 323 372 17,200 1,500 Climbing Boston Center
Fri 02:12:32 PM 42.5372 -74.5478 220° Southwest 350 403 18,600 900 Climbing Boston Center
Fri 02:13:32 PM 42.4669 -74.6242 219° Southwest 360 414 19,000 200 Climbing Boston Center
Fri 02:14:32 PM 42.3817 -74.7253 221° Southwest 365 420 19,000  Level Boston Center
Fri 02:15:32 PM 42.3069 -74.8125 221° Southwest 365 420 19,000  Level Boston Center
Fri 02:17:34 PM 42.1611 -74.9758 220° Southwest 359 413 19,000  Level New York Center
Fri 02:18:33 PM 42.0625 -75.0589 212° Southwest 373 429 19,000  Level New York Center
Fri 02:19:33 PM 41.9789 -75.1258 211° Southwest 397 457 19,000  Level New York Center
Fri 02:20:34 PM 41.8844 -75.2033 211° Southwest 397 457 19,000 -492 Level New York Center
Fri 02:21:35 PM 41.7814 -75.2825 210° Southwest 397 457 18,000 -1,240 Descending New York Center
Fri 02:22:35 PM 41.6911 -75.3572 212° Southwest 392 451 16,500 -1,590 Descending New York Center
Fri 02:23:32 PM 41.6050 -75.4261 211° Southwest 381 438 14,900 -1,678 Descending New York Center
Fri 02:24:33 PM 41.5364 -75.4822 211° Southwest 352 405 13,200 -1,426 Descending New York Center
Fri 02:25:34 PM 41.4611 -75.5406 210° Southwest 332 382 12,000 -590 Descending New York Center
Fri 02:26:35 PM 41.3772 -75.6067 211° Southwest 327 376 12,000  Level New York Center
Fri 02:27:33 PM 41.3039 -75.6647 211° Southwest 333 383 12,000  Level New York Center
Fri 02:28:34 PM 41.2050 -75.6881 190° South 326 375 12,000  Level New York Center
Fri 02:29:34 PM 41.1197 -75.6872 180° South 339 390 12,000 -446 Level New York Center
Fri 02:30:35 PM 41.0322 -75.6864 180° South 326 375 11,100 -1,008 Descending New York Center
Fri 02:31:33 PM 40.9406 -75.6881 181° South 311 358 10,000 -559 Descending New York Center
Fri 02:32:33 PM 40.8697 -75.6883 180° South 300 345 10,000  Level New York Center
Fri 02:33:34 PM 40.7864 -75.6853 178° South 300 345 10,000  Level New York Center
Fri 02:34:34 PM 40.6989 -75.6844 180° South 293 337 10,000  Level New York Center
Fri 02:35:35 PM 40.6217 -75.6869 181° South 288 331 10,000  Level New York Center
Fri 02:36:35 PM 40.5650 -75.6475 152° Southeast 275 316 10,000  Level New York Center
Fri 02:37:33 PM 40.5167 -75.5594 126° Southeast 262 302 10,000 -51 Level New York Center
Fri 02:38:33 PM 40.4719 -75.4744 125° Southeast 276 318 9,900 -347 Descending New York Center
Fri 02:39:34 PM 40.4089 -75.4375 156° South 246 283 9,300 -885 Descending New York Center
Fri 02:40:35 PM 40.3339 -75.4378 180° South 260 299 8,100 -1,160 Descending New York Center
Fri 02:41:33 PM 40.2631 -75.4358 179° South 272 313 7,000 -1,220 Descending New York Center
Fri 02:42:33 PM 40.1806 -75.4139 169° South 273 314 5,700 -1,190 Descending New York Center
Fri 02:43:34 PM 40.1169 -75.3878 163° South 273 314 4,600 -836 Descending New York Center
Fri 02:44:35 PM 40.0406 -75.3719 171° South 266 306 4,000 -316 Descending New York Center
Fri 02:45:28 PM 39.9833 -75.3500 164° South 256 295 4,000  Level Philadelphia TRACON
Fri 02:46:28 PM 39.9167 -75.3333 169° South 220 253 4,000  Level Philadelphia TRACON
Fri 02:47:28 PM 39.8667 -75.3333 180° South 196 226 4,000 -100 Level Philadelphia TRACON
Fri 02:48:28 PM 39.8000 -75.3167 169° South 189 217 3,800 -200 Descending Philadelphia TRACON

Login

Don't have an account? Register now (free) for customized features, flight alerts, and more!